sensor_id;sensor_type;location;lat;lon;timestamp;temperature;humidity
16827;DHT22;8530;49.540;8.576;2023-05-20T00:01:32;14.80;44.00
16827;DHT22;8530;49.540;8.576;2023-05-20T00:03:59;14.70;44.20
16827;DHT22;8530;49.540;8.576;2023-05-20T00:06:25;14.70;44.40
16827;DHT22;8530;49.540;8.576;2023-05-20T00:08:52;14.70;44.60
16827;DHT22;8530;49.540;8.576;2023-05-20T00:11:20;14.60;44.80
16827;DHT22;8530;49.540;8.576;2023-05-20T00:13:46;14.50;44.90
16827;DHT22;8530;49.540;8.576;2023-05-20T00:16:14;14.50;45.30
16827;DHT22;8530;49.540;8.576;2023-05-20T00:18:41;14.50;45.40
16827;DHT22;8530;49.540;8.576;2023-05-20T00:21:08;14.50;45.60
16827;DHT22;8530;49.540;8.576;2023-05-20T00:23:35;14.50;45.80
16827;DHT22;8530;49.540;8.576;2023-05-20T00:26:02;14.50;45.90
16827;DHT22;8530;49.540;8.576;2023-05-20T00:28:29;14.50;46.20
16827;DHT22;8530;49.540;8.576;2023-05-20T00:30:56;14.50;46.40
16827;DHT22;8530;49.540;8.576;2023-05-20T00:33:24;14.50;46.60
16827;DHT22;8530;49.540;8.576;2023-05-20T00:35:50;14.60;46.80
16827;DHT22;8530;49.540;8.576;2023-05-20T00:38:17;14.60;46.90
16827;DHT22;8530;49.540;8.576;2023-05-20T00:40:44;14.60;47.00
16827;DHT22;8530;49.540;8.576;2023-05-20T00:43:10;14.60;47.40
16827;DHT22;8530;49.540;8.576;2023-05-20T00:45:37;14.60;47.50
16827;DHT22;8530;49.540;8.576;2023-05-20T00:48:05;14.60;47.50
16827;DHT22;8530;49.540;8.576;2023-05-20T00:50:33;14.60;47.60
16827;DHT22;8530;49.540;8.576;2023-05-20T00:53:00;14.70;47.80
16827;DHT22;8530;49.540;8.576;2023-05-20T00:55:27;14.70;47.90
16827;DHT22;8530;49.540;8.576;2023-05-20T00:57:54;14.60;48.00
16827;DHT22;8530;49.540;8.576;2023-05-20T01:00:21;14.60;48.10
16827;DHT22;8530;49.540;8.576;2023-05-20T01:02:47;14.60;48.10
16827;DHT22;8530;49.540;8.576;2023-05-20T01:05:14;14.60;48.20
16827;DHT22;8530;49.540;8.576;2023-05-20T01:07:42;14.60;48.40
16827;DHT22;8530;49.540;8.576;2023-05-20T01:10:09;14.50;48.50
16827;DHT22;8530;49.540;8.576;2023-05-20T01:12:39;14.50;48.60
16827;DHT22;8530;49.540;8.576;2023-05-20T01:15:09;14.40;48.70
16827;DHT22;8530;49.540;8.576;2023-05-20T01:17:38;14.30;48.80
16827;DHT22;8530;49.540;8.576;2023-05-20T01:20:08;14.30;48.90
16827;DHT22;8530;49.540;8.576;2023-05-20T01:22:37;14.30;49.10
16827;DHT22;8530;49.540;8.576;2023-05-20T01:25:04;14.20;49.20
16827;DHT22;8530;49.540;8.576;2023-05-20T01:27:31;14.20;49.40
16827;DHT22;8530;49.540;8.576;2023-05-20T01:29:58;14.10;49.50
16827;DHT22;8530;49.540;8.576;2023-05-20T01:32:27;14.10;49.60
16827;DHT22;8530;49.540;8.576;2023-05-20T01:34:57;14.10;49.80
16827;DHT22;8530;49.540;8.576;2023-05-20T01:37:26;14.00;49.60
16827;DHT22;8530;49.540;8.576;2023-05-20T01:39:54;14.00;50.10
16827;DHT22;8530;49.540;8.576;2023-05-20T01:42:22;13.90;50.30
16827;DHT22;8530;49.540;8.576;2023-05-20T01:44:50;13.90;50.40
16827;DHT22;8530;49.540;8.576;2023-05-20T01:47:17;13.90;50.50
16827;DHT22;8530;49.540;8.576;2023-05-20T01:49:43;13.80;50.70
16827;DHT22;8530;49.540;8.576;2023-05-20T01:52:12;13.70;50.80
16827;DHT22;8530;49.540;8.576;2023-05-20T01:54:38;13.70;51.00
16827;DHT22;8530;49.540;8.576;2023-05-20T01:57:06;13.70;51.20
16827;DHT22;8530;49.540;8.576;2023-05-20T01:59:33;13.70;51.40
16827;DHT22;8530;49.540;8.576;2023-05-20T02:02:00;13.70;51.70
16827;DHT22;8530;49.540;8.576;2023-05-20T02:04:26;13.70;51.90
16827;DHT22;8530;49.540;8.576;2023-05-20T02:06:53;13.70;52.20
16827;DHT22;8530;49.540;8.576;2023-05-20T02:09:20;13.70;52.30
16827;DHT22;8530;49.540;8.576;2023-05-20T02:11:46;13.60;52.40
16827;DHT22;8530;49.540;8.576;2023-05-20T02:14:14;13.60;52.60
16827;DHT22;8530;49.540;8.576;2023-05-20T02:16:41;13.60;52.80
16827;DHT22;8530;49.540;8.576;2023-05-20T02:19:08;13.60;53.00
16827;DHT22;8530;49.540;8.576;2023-05-20T02:21:37;13.50;53.10
16827;DHT22;8530;49.540;8.576;2023-05-20T02:24:04;13.50;53.20
16827;DHT22;8530;49.540;8.576;2023-05-20T02:26:31;13.50;53.40
16827;DHT22;8530;49.540;8.576;2023-05-20T02:28:58;13.40;53.50
16827;DHT22;8530;49.540;8.576;2023-05-20T02:31:26;13.40;53.70
16827;DHT22;8530;49.540;8.576;2023-05-20T02:33:53;13.30;53.80
16827;DHT22;8530;49.540;8.576;2023-05-20T02:36:20;13.30;54.00
16827;DHT22;8530;49.540;8.576;2023-05-20T02:38:47;13.30;54.20
16827;DHT22;8530;49.540;8.576;2023-05-20T02:41:13;13.30;54.40
16827;DHT22;8530;49.540;8.576;2023-05-20T02:43:40;13.30;54.60
16827;DHT22;8530;49.540;8.576;2023-05-20T02:46:08;13.30;54.70
16827;DHT22;8530;49.540;8.576;2023-05-20T02:48:37;13.20;54.80
16827;DHT22;8530;49.540;8.576;2023-05-20T02:51:04;13.20;55.00
16827;DHT22;8530;49.540;8.576;2023-05-20T02:53:30;13.20;55.10
16827;DHT22;8530;49.540;8.576;2023-05-20T02:55:57;13.20;55.30
16827;DHT22;8530;49.540;8.576;2023-05-20T02:58:24;13.20;55.50
16827;DHT22;8530;49.540;8.576;2023-05-20T03:00:52;13.20;55.70
16827;DHT22;8530;49.540;8.576;2023-05-20T03:03:18;13.20;55.80
16827;DHT22;8530;49.540;8.576;2023-05-20T03:05:46;13.20;56.00
16827;DHT22;8530;49.540;8.576;2023-05-20T03:08:14;13.20;56.30
16827;DHT22;8530;49.540;8.576;2023-05-20T03:10:41;13.30;56.50
16827;DHT22;8530;49.540;8.576;2023-05-20T03:13:08;13.30;56.70
16827;DHT22;8530;49.540;8.576;2023-05-20T03:15:35;13.40;56.90
16827;DHT22;8530;49.540;8.576;2023-05-20T03:18:02;13.40;57.20
16827;DHT22;8530;49.540;8.576;2023-05-20T03:20:29;13.40;57.80
16827;DHT22;8530;49.540;8.576;2023-05-20T03:22:58;13.50;57.50
16827;DHT22;8530;49.540;8.576;2023-05-20T03:25:25;13.50;57.70
16827;DHT22;8530;49.540;8.576;2023-05-20T03:27:52;13.50;57.80
16827;DHT22;8530;49.540;8.576;2023-05-20T03:30:19;13.50;58.00
16827;DHT22;8530;49.540;8.576;2023-05-20T03:32:46;13.50;58.10
16827;DHT22;8530;49.540;8.576;2023-05-20T03:35:12;13.60;58.30
16827;DHT22;8530;49.540;8.576;2023-05-20T03:37:39;13.60;58.50
16827;DHT22;8530;49.540;8.576;2023-05-20T03:40:08;13.60;58.60
16827;DHT22;8530;49.540;8.576;2023-05-20T03:42:35;13.60;58.80
16827;DHT22;8530;49.540;8.576;2023-05-20T03:45:03;13.60;59.00
16827;DHT22;8530;49.540;8.576;2023-05-20T03:47:29;13.60;59.10
16827;DHT22;8530;49.540;8.576;2023-05-20T03:49:56;13.70;59.90
16827;DHT22;8530;49.540;8.576;2023-05-20T03:52:23;13.60;59.40
16827;DHT22;8530;49.540;8.576;2023-05-20T03:54:50;13.70;59.70
16827;DHT22;8530;49.540;8.576;2023-05-20T03:57:18;13.70;59.80
16827;DHT22;8530;49.540;8.576;2023-05-20T03:59:45;13.70;60.00
16827;DHT22;8530;49.540;8.576;2023-05-20T04:02:11;13.70;60.10
16827;DHT22;8530;49.540;8.576;2023-05-20T04:04:38;13.70;60.40
16827;DHT22;8530;49.540;8.576;2023-05-20T04:07:07;13.80;60.70
16827;DHT22;8530;49.540;8.576;2023-05-20T04:09:34;13.80;60.90
16827;DHT22;8530;49.540;8.576;2023-05-20T04:12:01;13.80;61.10
16827;DHT22;8530;49.540;8.576;2023-05-20T04:14:29;13.80;61.30
16827;DHT22;8530;49.540;8.576;2023-05-20T04:16:55;13.80;61.50
16827;DHT22;8530;49.540;8.576;2023-05-20T04:19:22;13.90;61.80
16827;DHT22;8530;49.540;8.576;2023-05-20T04:21:52;13.90;62.00
16827;DHT22;8530;49.540;8.576;2023-05-20T04:24:19;13.90;62.20
16827;DHT22;8530;49.540;8.576;2023-05-20T04:26:49;14.00;62.50
16827;DHT22;8530;49.540;8.576;2023-05-20T04:29:16;14.00;62.80
16827;DHT22;8530;49.540;8.576;2023-05-20T04:31:44;14.00;63.00
16827;DHT22;8530;49.540;8.576;2023-05-20T04:34:11;14.00;63.20
16827;DHT22;8530;49.540;8.576;2023-05-20T04:36:38;14.10;63.50
16827;DHT22;8530;49.540;8.576;2023-05-20T04:39:05;14.10;63.70
16827;DHT22;8530;49.540;8.576;2023-05-20T04:41:32;14.20;64.10
16827;DHT22;8530;49.540;8.576;2023-05-20T04:43:59;14.20;64.20
16827;DHT22;8530;49.540;8.576;2023-05-20T04:46:26;14.30;64.50
16827;DHT22;8530;49.540;8.576;2023-05-20T04:48:54;14.30;64.60
16827;DHT22;8530;49.540;8.576;2023-05-20T04:51:21;14.30;64.80
16827;DHT22;8530;49.540;8.576;2023-05-20T04:53:48;14.30;64.90
16827;DHT22;8530;49.540;8.576;2023-05-20T04:56:15;14.40;65.10
16827;DHT22;8530;49.540;8.576;2023-05-20T04:58:41;14.40;65.20
16827;DHT22;8530;49.540;8.576;2023-05-20T05:01:08;14.40;65.40
16827;DHT22;8530;49.540;8.576;2023-05-20T05:03:35;14.40;65.50
16827;DHT22;8530;49.540;8.576;2023-05-20T05:06:03;14.50;65.70
16827;DHT22;8530;49.540;8.576;2023-05-20T05:08:29;14.50;66.20
16827;DHT22;8530;49.540;8.576;2023-05-20T05:10:56;14.60;66.00
16827;DHT22;8530;49.540;8.576;2023-05-20T05:13:23;14.60;66.10
16827;DHT22;8530;49.540;8.576;2023-05-20T05:15:57;14.60;66.20
16827;DHT22;8530;49.540;8.576;2023-05-20T05:18:24;14.70;66.50
16827;DHT22;8530;49.540;8.576;2023-05-20T05:20:58;14.70;66.60
16827;DHT22;8530;49.540;8.576;2023-05-20T05:23:26;14.90;66.90
16827;DHT22;8530;49.540;8.576;2023-05-20T05:25:53;15.00;67.10
16827;DHT22;8530;49.540;8.576;2023-05-20T05:28:19;15.10;67.10
16827;DHT22;8530;49.540;8.576;2023-05-20T05:30:46;15.30;67.30
16827;DHT22;8530;49.540;8.576;2023-05-20T05:33:13;15.40;67.30
16827;DHT22;8530;49.540;8.576;2023-05-20T05:35:40;15.60;67.30
16827;DHT22;8530;49.540;8.576;2023-05-20T05:38:07;15.80;67.30
16827;DHT22;8530;49.540;8.576;2023-05-20T05:40:35;16.10;67.20
16827;DHT22;8530;49.540;8.576;2023-05-20T05:43:01;16.30;67.00
16827;DHT22;8530;49.540;8.576;2023-05-20T05:45:28;16.50;66.90
16827;DHT22;8530;49.540;8.576;2023-05-20T05:47:55;16.80;66.60
16827;DHT22;8530;49.540;8.576;2023-05-20T05:50:21;17.00;66.40
16827;DHT22;8530;49.540;8.576;2023-05-20T05:52:48;17.30;66.10
16827;DHT22;8530;49.540;8.576;2023-05-20T05:55:15;17.50;65.70
16827;DHT22;8530;49.540;8.576;2023-05-20T05:57:44;17.60;65.10
16827;DHT22;8530;49.540;8.576;2023-05-20T06:00:11;17.80;64.80
16827;DHT22;8530;49.540;8.576;2023-05-20T06:02:38;18.00;64.50
16827;DHT22;8530;49.540;8.576;2023-05-20T06:05:06;18.30;64.20
16827;DHT22;8530;49.540;8.576;2023-05-20T06:07:33;18.40;63.60
16827;DHT22;8530;49.540;8.576;2023-05-20T06:09:59;18.60;63.20
16827;DHT22;8530;49.540;8.576;2023-05-20T06:12:26;18.90;62.90
16827;DHT22;8530;49.540;8.576;2023-05-20T06:14:54;19.00;62.30
16827;DHT22;8530;49.540;8.576;2023-05-20T06:17:21;19.20;61.60
16827;DHT22;8530;49.540;8.576;2023-05-20T06:19:48;19.30;61.20
16827;DHT22;8530;49.540;8.576;2023-05-20T06:22:14;19.50;60.80
16827;DHT22;8530;49.540;8.576;2023-05-20T06:24:41;19.60;60.10
16827;DHT22;8530;49.540;8.576;2023-05-20T06:27:08;19.80;59.70
16827;DHT22;8530;49.540;8.576;2023-05-20T06:29:34;19.80;59.00
16827;DHT22;8530;49.540;8.576;2023-05-20T06:32:03;20.00;58.90
16827;DHT22;8530;49.540;8.576;2023-05-20T06:34:30;20.00;58.30
16827;DHT22;8530;49.540;8.576;2023-05-20T06:36:57;20.10;57.80
16827;DHT22;8530;49.540;8.576;2023-05-20T06:39:24;20.10;57.40
16827;DHT22;8530;49.540;8.576;2023-05-20T06:41:50;20.10;56.90
16827;DHT22;8530;49.540;8.576;2023-05-20T06:44:18;20.10;56.50
16827;DHT22;8530;49.540;8.576;2023-05-20T06:46:45;20.20;56.20
16827;DHT22;8530;49.540;8.576;2023-05-20T06:49:13;20.30;56.00
16827;DHT22;8530;49.540;8.576;2023-05-20T06:51:39;20.50;55.80
16827;DHT22;8530;49.540;8.576;2023-05-20T06:54:06;20.60;55.50
16827;DHT22;8530;49.540;8.576;2023-05-20T06:56:32;20.60;55.10
16827;DHT22;8530;49.540;8.576;2023-05-20T06:58:59;20.80;55.10
16827;DHT22;8530;49.540;8.576;2023-05-20T07:01:26;21.00;54.80
16827;DHT22;8530;49.540;8.576;2023-05-20T07:03:53;21.10;54.50
16827;DHT22;8530;49.540;8.576;2023-05-20T07:06:21;21.20;54.20
16827;DHT22;8530;49.540;8.576;2023-05-20T07:08:48;21.30;53.90
16827;DHT22;8530;49.540;8.576;2023-05-20T07:11:15;21.40;53.40
16827;DHT22;8530;49.540;8.576;2023-05-20T07:13:42;21.50;53.10
16827;DHT22;8530;49.540;8.576;2023-05-20T07:16:08;21.70;53.00
16827;DHT22;8530;49.540;8.576;2023-05-20T07:18:35;21.90;52.60
16827;DHT22;8530;49.540;8.576;2023-05-20T07:21:02;22.10;52.30
16827;DHT22;8530;49.540;8.576;2023-05-20T07:23:30;22.60;52.10
16827;DHT22;8530;49.540;8.576;2023-05-20T07:25:57;23.80;53.40
16827;DHT22;8530;49.540;8.576;2023-05-20T07:28:24;25.30;53.40
16827;DHT22;8530;49.540;8.576;2023-05-20T07:30:50;26.80;51.30
16827;DHT22;8530;49.540;8.576;2023-05-20T07:33:17;27.90;48.80
16827;DHT22;8530;49.540;8.576;2023-05-20T07:35:45;28.20;45.70
16827;DHT22;8530;49.540;8.576;2023-05-20T07:38:18;29.20;44.40
16827;DHT22;8530;49.540;8.576;2023-05-20T07:40:47;31.10;42.80
16827;DHT22;8530;49.540;8.576;2023-05-20T07:43:13;33.20;40.90
16827;DHT22;8530;49.540;8.576;2023-05-20T07:45:41;34.80;38.00
16827;DHT22;8530;49.540;8.576;2023-05-20T07:48:07;35.90;34.20
16827;DHT22;8530;49.540;8.576;2023-05-20T07:50:35;36.90;31.30
16827;DHT22;8530;49.540;8.576;2023-05-20T07:53:02;37.50;29.10
16827;DHT22;8530;49.540;8.576;2023-05-20T07:55:29;37.80;27.50
16827;DHT22;8530;49.540;8.576;2023-05-20T07:57:57;37.90;26.60
16827;DHT22;8530;49.540;8.576;2023-05-20T08:00:23;38.40;25.10
16827;DHT22;8530;49.540;8.576;2023-05-20T08:02:50;38.60;24.20
16827;DHT22;8530;49.540;8.576;2023-05-20T08:05:17;38.70;23.50
16827;DHT22;8530;49.540;8.576;2023-05-20T08:07:44;38.70;22.80
16827;DHT22;8530;49.540;8.576;2023-05-20T08:10:11;38.90;22.10
16827;DHT22;8530;49.540;8.576;2023-05-20T08:12:38;38.90;21.50
16827;DHT22;8530;49.540;8.576;2023-05-20T08:15:07;38.30;20.90
16827;DHT22;8530;49.540;8.576;2023-05-20T08:17:34;36.50;20.50
16827;DHT22;8530;49.540;8.576;2023-05-20T08:20:00;34.50;21.00
16827;DHT22;8530;49.540;8.576;2023-05-20T08:22:27;33.10;21.60
16827;DHT22;8530;49.540;8.576;2023-05-20T08:24:54;31.90;22.10
16827;DHT22;8530;49.540;8.576;2023-05-20T08:27:20;31.00;22.90
16827;DHT22;8530;49.540;8.576;2023-05-20T08:29:47;30.30;23.70
16827;DHT22;8530;49.540;8.576;2023-05-20T08:32:15;29.70;24.20
16827;DHT22;8530;49.540;8.576;2023-05-20T08:34:42;29.00;24.90
16827;DHT22;8530;49.540;8.576;2023-05-20T08:37:08;28.40;25.60
16827;DHT22;8530;49.540;8.576;2023-05-20T08:39:35;27.70;26.30
16827;DHT22;8530;49.540;8.576;2023-05-20T08:42:02;27.20;26.90
16827;DHT22;8530;49.540;8.576;2023-05-20T08:44:32;26.90;27.50
16827;DHT22;8530;49.540;8.576;2023-05-20T08:47:00;26.40;28.00
16827;DHT22;8530;49.540;8.576;2023-05-20T08:49:30;26.00;28.60
16827;DHT22;8530;49.540;8.576;2023-05-20T08:51:58;25.60;29.20
16827;DHT22;8530;49.540;8.576;2023-05-20T08:54:29;25.30;29.70
16827;DHT22;8530;49.540;8.576;2023-05-20T08:56:59;25.10;30.40
16827;DHT22;8530;49.540;8.576;2023-05-20T08:59:26;25.00;31.00
16827;DHT22;8530;49.540;8.576;2023-05-20T09:01:53;25.00;31.40
16827;DHT22;8530;49.540;8.576;2023-05-20T09:04:20;24.90;31.90
16827;DHT22;8530;49.540;8.576;2023-05-20T09:06:50;24.80;31.90
16827;DHT22;8530;49.540;8.576;2023-05-20T09:09:16;24.80;32.40
16827;DHT22;8530;49.540;8.576;2023-05-20T09:11:43;24.60;32.60
16827;DHT22;8530;49.540;8.576;2023-05-20T09:14:10;24.40;32.90
16827;DHT22;8530;49.540;8.576;2023-05-20T09:16:39;24.20;33.20
16827;DHT22;8530;49.540;8.576;2023-05-20T09:19:06;24.10;33.80
16827;DHT22;8530;49.540;8.576;2023-05-20T09:21:34;24.10;34.10
16827;DHT22;8530;49.540;8.576;2023-05-20T09:24:03;24.00;34.50
16827;DHT22;8530;49.540;8.576;2023-05-20T09:26:30;23.90;34.90
16827;DHT22;8530;49.540;8.576;2023-05-20T09:28:57;23.80;35.30
16827;DHT22;8530;49.540;8.576;2023-05-20T09:31:25;23.70;35.60
16827;DHT22;8530;49.540;8.576;2023-05-20T09:33:53;23.80;36.00
16827;DHT22;8530;49.540;8.576;2023-05-20T09:36:21;23.90;36.20
16827;DHT22;8530;49.540;8.576;2023-05-20T09:38:50;24.00;36.60
16827;DHT22;8530;49.540;8.576;2023-05-20T09:41:21;24.00;36.60
16827;DHT22;8530;49.540;8.576;2023-05-20T09:43:51;23.90;36.50
16827;DHT22;8530;49.540;8.576;2023-05-20T09:46:19;23.80;36.80
16827;DHT22;8530;49.540;8.576;2023-05-20T09:48:46;23.70;37.00
16827;DHT22;8530;49.540;8.576;2023-05-20T09:51:13;23.60;37.20
16827;DHT22;8530;49.540;8.576;2023-05-20T09:53:41;23.50;38.00
16827;DHT22;8530;49.540;8.576;2023-05-20T09:56:08;23.60;37.80
16827;DHT22;8530;49.540;8.576;2023-05-20T09:58:37;23.60;37.80
16827;DHT22;8530;49.540;8.576;2023-05-20T10:01:05;23.70;37.90
16827;DHT22;8530;49.540;8.576;2023-05-20T10:03:32;23.70;37.90
16827;DHT22;8530;49.540;8.576;2023-05-20T10:06:33;23.80;38.10
16827;DHT22;8530;49.540;8.576;2023-05-20T10:09:18;23.80;38.20
16827;DHT22;8530;49.540;8.576;2023-05-20T10:11:55;24.00;38.30
16827;DHT22;8530;49.540;8.576;2023-05-20T10:14:39;24.10;38.20
16827;DHT22;8530;49.540;8.576;2023-05-20T10:17:15;24.20;38.20
16827;DHT22;8530;49.540;8.576;2023-05-20T10:19:42;24.30;38.20
16827;DHT22;8530;49.540;8.576;2023-05-20T10:22:10;24.30;38.00
16827;DHT22;8530;49.540;8.576;2023-05-20T10:24:39;24.30;38.00
16827;DHT22;8530;49.540;8.576;2023-05-20T10:27:07;24.40;38.10
16827;DHT22;8530;49.540;8.576;2023-05-20T10:29:45;24.40;38.10
16827;DHT22;8530;49.540;8.576;2023-05-20T10:32:23;24.60;38.00
16827;DHT22;8530;49.540;8.576;2023-05-20T10:34:50;24.70;38.00
16827;DHT22;8530;49.540;8.576;2023-05-20T10:37:22;24.70;37.80
16827;DHT22;8530;49.540;8.576;2023-05-20T10:39:50;24.80;37.90
16827;DHT22;8530;49.540;8.576;2023-05-20T10:42:26;25.00;37.80
16827;DHT22;8530;49.540;8.576;2023-05-20T10:44:55;25.00;37.60
16827;DHT22;8530;49.540;8.576;2023-05-20T10:47:21;25.00;38.00
16827;DHT22;8530;49.540;8.576;2023-05-20T10:49:48;25.00;37.40
16827;DHT22;8530;49.540;8.576;2023-05-20T10:52:16;25.00;37.30
16827;DHT22;8530;49.540;8.576;2023-05-20T10:54:43;25.00;37.30
16827;DHT22;8530;49.540;8.576;2023-05-20T10:57:10;24.90;37.20
16827;DHT22;8530;49.540;8.576;2023-05-20T10:59:37;24.90;37.40
16827;DHT22;8530;49.540;8.576;2023-05-20T11:02:07;24.90;37.40
16827;DHT22;8530;49.540;8.576;2023-05-20T11:04:36;25.10;37.40
16827;DHT22;8530;49.540;8.576;2023-05-20T11:07:06;25.20;37.40
16827;DHT22;8530;49.540;8.576;2023-05-20T11:09:33;25.20;37.30
16827;DHT22;8530;49.540;8.576;2023-05-20T11:12:00;25.30;37.10
16827;DHT22;8530;49.540;8.576;2023-05-20T11:14:27;25.30;37.00
16827;DHT22;8530;49.540;8.576;2023-05-20T11:16:55;25.20;37.00
16827;DHT22;8530;49.540;8.576;2023-05-20T11:19:23;25.20;37.00
16827;DHT22;8530;49.540;8.576;2023-05-20T11:21:51;25.00;37.00
16827;DHT22;8530;49.540;8.576;2023-05-20T11:24:25;24.90;37.10
16827;DHT22;8530;49.540;8.576;2023-05-20T11:26:52;25.10;37.20
16827;DHT22;8530;49.540;8.576;2023-05-20T11:29:21;25.30;37.10
16827;DHT22;8530;49.540;8.576;2023-05-20T11:31:54;25.40;37.00
16827;DHT22;8530;49.540;8.576;2023-05-20T11:34:32;25.50;36.90
16827;DHT22;8530;49.540;8.576;2023-05-20T11:37:06;25.60;36.70
16827;DHT22;8530;49.540;8.576;2023-05-20T11:39:38;25.70;36.60
16827;DHT22;8530;49.540;8.576;2023-05-20T11:42:07;25.80;36.50
16827;DHT22;8530;49.540;8.576;2023-05-20T11:44:42;25.80;36.40
16827;DHT22;8530;49.540;8.576;2023-05-20T11:47:10;25.90;36.30
16827;DHT22;8530;49.540;8.576;2023-05-20T11:49:40;26.10;36.20
16827;DHT22;8530;49.540;8.576;2023-05-20T11:52:11;26.20;36.10
16827;DHT22;8530;49.540;8.576;2023-05-20T11:54:44;26.30;35.80
16827;DHT22;8530;49.540;8.576;2023-05-20T11:57:11;26.50;35.20
16827;DHT22;8530;49.540;8.576;2023-05-20T11:59:43;26.50;35.10
16827;DHT22;8530;49.540;8.576;2023-05-20T12:02:10;26.70;35.00
16827;DHT22;8530;49.540;8.576;2023-05-20T12:04:39;26.80;34.60
16827;DHT22;8530;49.540;8.576;2023-05-20T12:07:10;26.80;34.50
16827;DHT22;8530;49.540;8.576;2023-05-20T12:09:40;26.90;34.50
16827;DHT22;8530;49.540;8.576;2023-05-20T12:12:16;27.20;34.30
16827;DHT22;8530;49.540;8.576;2023-05-20T12:14:53;27.20;34.00
16827;DHT22;8530;49.540;8.576;2023-05-20T12:17:23;27.10;33.80
16827;DHT22;8530;49.540;8.576;2023-05-20T12:19:53;26.90;33.80
16827;DHT22;8530;49.540;8.576;2023-05-20T12:22:21;26.70;34.00
16827;DHT22;8530;49.540;8.576;2023-05-20T12:24:50;26.70;34.40
16827;DHT22;8530;49.540;8.576;2023-05-20T12:27:20;26.70;34.30
16827;DHT22;8530;49.540;8.576;2023-05-20T12:29:48;26.80;34.40
16827;DHT22;8530;49.540;8.576;2023-05-20T12:32:17;26.90;34.20
16827;DHT22;8530;49.540;8.576;2023-05-20T12:34:45;27.00;34.00
16827;DHT22;8530;49.540;8.576;2023-05-20T12:37:17;26.90;33.80
16827;DHT22;8530;49.540;8.576;2023-05-20T12:39:45;26.80;33.80
16827;DHT22;8530;49.540;8.576;2023-05-20T12:42:12;26.50;33.70
16827;DHT22;8530;49.540;8.576;2023-05-20T12:44:40;26.40;34.00
16827;DHT22;8530;49.540;8.576;2023-05-20T12:47:08;26.00;34.10
16827;DHT22;8530;49.540;8.576;2023-05-20T12:49:35;25.70;34.40
16827;DHT22;8530;49.540;8.576;2023-05-20T12:52:07;25.70;34.80
16827;DHT22;8530;49.540;8.576;2023-05-20T12:54:36;25.70;35.10
16827;DHT22;8530;49.540;8.576;2023-05-20T12:57:04;26.00;35.20
16827;DHT22;8530;49.540;8.576;2023-05-20T12:59:31;26.30;35.10
16827;DHT22;8530;49.540;8.576;2023-05-20T13:01:58;26.50;34.90
16827;DHT22;8530;49.540;8.576;2023-05-20T13:04:26;26.70;34.80
16827;DHT22;8530;49.540;8.576;2023-05-20T13:06:56;26.80;34.50
16827;DHT22;8530;49.540;8.576;2023-05-20T13:09:23;26.90;34.10
16827;DHT22;8530;49.540;8.576;2023-05-20T13:11:52;27.00;33.90
16827;DHT22;8530;49.540;8.576;2023-05-20T13:14:20;27.00;33.70
16827;DHT22;8530;49.540;8.576;2023-05-20T13:16:55;27.10;33.50
16827;DHT22;8530;49.540;8.576;2023-05-20T13:19:25;27.20;33.40
16827;DHT22;8530;49.540;8.576;2023-05-20T13:21:52;27.20;33.40
16827;DHT22;8530;49.540;8.576;2023-05-20T13:24:20;27.10;33.40
16827;DHT22;8530;49.540;8.576;2023-05-20T13:26:51;27.10;33.50
16827;DHT22;8530;49.540;8.576;2023-05-20T13:29:19;27.00;33.50
16827;DHT22;8530;49.540;8.576;2023-05-20T13:31:46;27.00;33.20
16827;DHT22;8530;49.540;8.576;2023-05-20T13:34:13;26.80;33.30
16827;DHT22;8530;49.540;8.576;2023-05-20T13:36:40;26.80;33.40
16827;DHT22;8530;49.540;8.576;2023-05-20T13:39:08;26.80;33.50
16827;DHT22;8530;49.540;8.576;2023-05-20T13:41:35;27.00;33.60
16827;DHT22;8530;49.540;8.576;2023-05-20T13:44:04;27.00;33.50
16827;DHT22;8530;49.540;8.576;2023-05-20T13:46:32;26.80;33.50
16827;DHT22;8530;49.540;8.576;2023-05-20T13:49:00;26.80;33.70
16827;DHT22;8530;49.540;8.576;2023-05-20T13:51:29;26.80;33.70
16827;DHT22;8530;49.540;8.576;2023-05-20T13:53:56;26.90;33.60
16827;DHT22;8530;49.540;8.576;2023-05-20T13:56:24;26.90;33.90
16827;DHT22;8530;49.540;8.576;2023-05-20T13:58:53;26.80;33.30
16827;DHT22;8530;49.540;8.576;2023-05-20T14:01:22;26.70;33.30
16827;DHT22;8530;49.540;8.576;2023-05-20T14:03:52;26.80;33.50
16827;DHT22;8530;49.540;8.576;2023-05-20T14:06:20;26.90;33.50
16827;DHT22;8530;49.540;8.576;2023-05-20T14:08:47;26.90;33.40
16827;DHT22;8530;49.540;8.576;2023-05-20T14:11:15;26.80;33.40
16827;DHT22;8530;49.540;8.576;2023-05-20T14:13:47;26.70;33.50
16827;DHT22;8530;49.540;8.576;2023-05-20T14:16:15;26.80;33.70
16827;DHT22;8530;49.540;8.576;2023-05-20T14:18:45;26.90;33.70
16827;DHT22;8530;49.540;8.576;2023-05-20T14:21:12;27.00;33.70
16827;DHT22;8530;49.540;8.576;2023-05-20T14:23:40;27.00;33.70
16827;DHT22;8530;49.540;8.576;2023-05-20T14:26:15;27.00;33.70
16827;DHT22;8530;49.540;8.576;2023-05-20T14:28:45;27.10;33.80
16827;DHT22;8530;49.540;8.576;2023-05-20T14:31:14;27.20;33.80
16827;DHT22;8530;49.540;8.576;2023-05-20T14:33:41;27.20;33.70
16827;DHT22;8530;49.540;8.576;2023-05-20T14:36:11;27.20;33.60
16827;DHT22;8530;49.540;8.576;2023-05-20T14:38:42;27.20;33.50
16827;DHT22;8530;49.540;8.576;2023-05-20T14:41:11;27.20;33.50
16827;DHT22;8530;49.540;8.576;2023-05-20T14:43:45;27.20;33.40
16827;DHT22;8530;49.540;8.576;2023-05-20T14:46:21;27.30;33.40
16827;DHT22;8530;49.540;8.576;2023-05-20T14:48:53;27.40;33.30
16827;DHT22;8530;49.540;8.576;2023-05-20T14:51:25;27.40;33.30
16827;DHT22;8530;49.540;8.576;2023-05-20T14:54:10;27.30;33.40
16827;DHT22;8530;49.540;8.576;2023-05-20T14:56:54;27.30;33.50
16827;DHT22;8530;49.540;8.576;2023-05-20T14:59:26;27.10;33.60
16827;DHT22;8530;49.540;8.576;2023-05-20T15:01:53;26.90;33.80
16827;DHT22;8530;49.540;8.576;2023-05-20T15:04:21;26.80;34.10
16827;DHT22;8530;49.540;8.576;2023-05-20T15:06:50;26.70;34.20
16827;DHT22;8530;49.540;8.576;2023-05-20T15:09:17;26.40;34.50
16827;DHT22;8530;49.540;8.576;2023-05-20T15:11:46;26.40;34.90
16827;DHT22;8530;49.540;8.576;2023-05-20T15:14:16;26.20;35.40
16827;DHT22;8530;49.540;8.576;2023-05-20T15:16:44;26.10;35.70
16827;DHT22;8530;49.540;8.576;2023-05-20T15:19:11;26.00;35.90
16827;DHT22;8530;49.540;8.576;2023-05-20T15:21:38;26.00;36.20
16827;DHT22;8530;49.540;8.576;2023-05-20T15:24:06;25.80;36.30
16827;DHT22;8530;49.540;8.576;2023-05-20T15:26:33;25.80;36.70
16827;DHT22;8530;49.540;8.576;2023-05-20T15:29:00;25.60;36.80
16827;DHT22;8530;49.540;8.576;2023-05-20T15:31:26;25.60;37.10
16827;DHT22;8530;49.540;8.576;2023-05-20T15:33:56;25.50;37.40
16827;DHT22;8530;49.540;8.576;2023-05-20T15:36:23;25.40;37.60
16827;DHT22;8530;49.540;8.576;2023-05-20T15:38:50;25.50;37.90
16827;DHT22;8530;49.540;8.576;2023-05-20T15:41:18;25.40;38.00
16827;DHT22;8530;49.540;8.576;2023-05-20T15:43:46;25.40;38.10
16827;DHT22;8530;49.540;8.576;2023-05-20T15:46:13;25.40;38.30
16827;DHT22;8530;49.540;8.576;2023-05-20T15:48:40;25.30;38.40
16827;DHT22;8530;49.540;8.576;2023-05-20T15:51:06;25.30;38.60